Time;durP1;ratioP1;P1;durP2;ratioP2;P2;SDS_P1;SDS_P2;PMS_P1;PMS_P2;Temp;Humidity;BMP_temperature;BMP_pressure;BME280_temperature;BME280_humidity;BME280_pressure;Samples;Min_cycle;Max_cycle;Signal;HPM_P1;HPM_P2
2023/09/03 00:00:23;;;;;;;8.40;3.80;;;19.80;99.90;;;;;;6247991;23;20004;-68
2023/09/03 00:02:49;;;;;;;4.40;3.70;;;19.80;99.90;;;;;;6245640;23;20010;-68
2023/09/03 00:05:14;;;;;;;8.25;3.83;;;19.80;99.90;;;;;;6247024;22;20038;-68
2023/09/03 00:07:40;;;;;;;5.57;3.42;;;19.80;99.90;;;;;;6245603;23;20005;-68
2023/09/03 00:10:06;;;;;;;4.95;3.67;;;19.80;99.90;;;;;;6245506;23;20000;-68
2023/09/03 00:12:32;;;;;;;5.20;3.78;;;19.80;99.90;;;;;;6245714;23;20111;-68
2023/09/03 00:14:57;;;;;;;4.63;3.72;;;19.70;99.90;;;;;;6246922;22;20357;-68
2023/09/03 00:17:23;;;;;;;6.43;3.55;;;19.70;99.90;;;;;;6246816;23;20008;-68
2023/09/03 00:19:48;;;;;;;7.20;4.10;;;19.70;99.90;;;;;;6247133;23;20449;-68
2023/09/03 00:22:14;;;;;;;5.93;4.10;;;19.70;99.90;;;;;;6247490;23;20000;-69
2023/09/03 00:24:39;;;;;;;6.20;3.63;;;19.70;99.90;;;;;;6245486;22;19996;-68
2023/09/03 00:27:05;;;;;;;7.53;4.25;;;19.50;99.90;;;;;;6245504;23;20004;-69
2023/09/03 00:29:32;;;;;;;7.65;3.55;;;19.40;99.90;;;;;;6247029;23;20063;-68
2023/09/03 00:31:57;;;;;;;6.60;3.75;;;19.40;99.90;;;;;;6246550;23;20011;-68
2023/09/03 00:34:23;;;;;;;6.13;3.28;;;19.30;99.90;;;;;;6247020;22;20004;-68
2023/09/03 00:36:48;;;;;;;9.18;3.42;;;19.30;99.90;;;;;;6247223;23;20000;-67
2023/09/03 00:39:14;;;;;;;5.00;3.67;;;19.40;99.90;;;;;;6246022;23;20062;-68
2023/09/03 00:41:39;;;;;;;5.93;3.63;;;19.30;99.90;;;;;;6246702;23;20087;-68
2023/09/03 00:44:05;;;;;;;3.83;3.20;;;19.10;99.90;;;;;;6244786;22;20079;-68
2023/09/03 00:46:31;;;;;;;5.20;3.60;;;19.10;99.90;;;;;;6246514;23;20083;-68
2023/09/03 00:48:58;;;;;;;5.60;3.15;;;19.00;99.90;;;;;;6246877;23;20007;-68
2023/09/03 00:51:24;;;;;;;5.93;3.88;;;19.00;99.90;;;;;;6247910;22;20039;-68
2023/09/03 00:53:54;;;;;;;6.45;3.40;;;19.00;99.90;;;;;;6249480;22;20019;-67
2023/09/03 00:56:21;;;;;;;6.88;3.63;;;18.90;99.90;;;;;;6250728;23;20091;-68
2023/09/03 00:58:47;;;;;;;6.03;3.28;;;18.90;99.90;;;;;;6249815;22;20038;-68
2023/09/03 01:01:13;;;;;;;5.78;3.17;;;18.90;99.90;;;;;;6249078;22;20000;-67
2023/09/03 01:03:39;;;;;;;;;;;18.90;99.90;;;;;;6248796;22;20015;-67
2023/09/03 01:06:05;;;;;;;7.65;3.33;;;18.80;99.90;;;;;;6246473;23;19899;-68
2023/09/03 01:08:31;;;;;;;4.78;3.15;;;18.80;99.90;;;;;;6246701;22;20000;-68
2023/09/03 01:11:18;;;;;;;5.50;3.67;;;18.70;99.90;;;;;;6246995;22;20000;-68
2023/09/03 01:14:02;;;;;;;9.27;3.00;;;18.70;99.90;;;;;;6246695;22;20001;-68
2023/09/03 01:16:40;;;;;;;7.35;3.45;;;18.70;99.90;;;;;;6246444;23;20075;-68
2023/09/03 01:19:37;;;;;;;8.27;3.58;;;18.60;99.90;;;;;;6246561;22;20075;-68
2023/09/03 01:22:19;;;;;;;7.10;3.20;;;18.60;99.90;;;;;;6243888;23;20010;-68
2023/09/03 01:25:05;;;;;;;7.85;3.67;;;18.60;99.90;;;;;;6246631;22;20000;-68
2023/09/03 01:27:51;;;;;;;5.68;3.65;;;18.60;99.90;;;;;;6246881;22;20062;-68
2023/09/03 01:30:18;;;;;;;6.35;3.28;;;18.50;99.90;;;;;;6246744;22;19999;-68
2023/09/03 01:32:47;;;;;;;5.38;3.47;;;18.60;99.90;;;;;;6245851;22;20000;-68
2023/09/03 01:35:13;;;;;;;4.97;3.60;;;18.60;99.90;;;;;;6246168;22;20004;-68
2023/09/03 01:37:39;;;;;;;;;;;18.50;99.90;;;;;;6246763;22;20004;-69
2023/09/03 01:40:05;;;;;;;6.75;3.72;;;18.50;99.90;;;;;;6246405;23;19907;-68
2023/09/03 01:42:30;;;;;;;6.45;3.70;;;18.50;99.90;;;;;;6247103;22;20004;-67
2023/09/03 01:44:56;;;;;;;7.07;3.75;;;18.50;99.90;;;;;;6246846;22;20469;-67
2023/09/03 01:47:38;;;;;;;8.40;3.60;;;18.40;99.90;;;;;;6246597;23;20004;-67
2023/09/03 01:50:30;;;;;;;6.85;3.92;;;18.40;99.90;;;;;;6256303;23;20003;-67
2023/09/03 01:53:09;;;;;;;7.82;3.75;;;18.50;99.90;;;;;;6252492;23;20011;-67
2023/09/03 01:55:38;;;;;;;7.78;3.92;;;18.40;99.90;;;;;;6222788;23;20015;-69
2023/09/03 01:58:06;;;;;;;5.25;3.55;;;18.40;99.90;;;;;;6246744;23;20008;-67
2023/09/03 02:00:32;;;;;;;6.32;3.97;;;18.30;99.90;;;;;;6245766;23;20007;-67
2023/09/03 02:02:59;;;;;;;;;;;18.30;99.90;;;;;;6246360;23;20011;-68
2023/09/03 02:05:25;;;;;;;5.07;3.65;;;18.30;99.90;;;;;;6245950;22;19900;-68
2023/09/03 02:07:50;;;;;;;7.90;3.60;;;18.30;99.90;;;;;;6245942;23;20253;-68
2023/09/03 02:10:16;;;;;;;6.55;3.88;;;18.30;99.90;;;;;;6245865;23;20004;-69
2023/09/03 02:12:41;;;;;;;4.82;3.80;;;18.20;99.90;;;;;;6245972;23;20004;-68
2023/09/03 02:15:08;;;;;;;6.15;3.50;;;18.30;99.90;;;;;;6245835;22;20030;-68
2023/09/03 02:17:33;;;;;;;8.02;3.70;;;18.30;99.90;;;;;;6245658;23;20000;-68
2023/09/03 02:19:59;;;;;;;6.20;3.80;;;18.20;99.90;;;;;;6246120;23;20004;-68
2023/09/03 02:22:24;;;;;;;4.60;3.00;;;18.20;99.90;;;;;;6245721;23;20004;-68
2023/09/03 02:24:51;;;;;;;6.13;3.30;;;18.20;99.90;;;;;;6245898;22;20000;-68
2023/09/03 02:27:16;;;;;;;5.97;3.85;;;18.30;99.90;;;;;;6246118;23;20015;-68
2023/09/03 02:29:42;;;;;;;4.43;3.45;;;18.20;99.90;;;;;;6245872;23;20007;-67
2023/09/03 02:32:08;;;;;;;4.90;3.50;;;18.20;99.90;;;;;;6245879;23;20034;-67
2023/09/03 02:34:36;;;;;;;4.82;3.38;;;18.20;99.90;;;;;;6245890;22;20080;-67
2023/09/03 02:37:02;;;;;;;6.68;3.50;;;18.20;99.90;;;;;;6246019;23;20362;-67
2023/09/03 02:39:28;;;;;;;5.32;3.25;;;18.20;99.90;;;;;;6247885;23;20011;-67
2023/09/03 02:41:54;;;;;;;6.40;3.60;;;18.20;99.90;;;;;;6248014;23;20000;-68
2023/09/03 02:44:19;;;;;;;6.35;3.55;;;18.30;99.90;;;;;;6247601;22;20012;-67
2023/09/03 02:46:45;;;;;;;5.13;3.13;;;18.30;99.90;;;;;;6247509;23;20010;-68
2023/09/03 02:49:10;;;;;;;7.25;3.38;;;18.30;99.90;;;;;;6247828;23;20142;-67
2023/09/03 02:51:37;;;;;;;5.53;3.05;;;18.30;99.90;;;;;;6247975;23;20008;-67
2023/09/03 02:54:03;;;;;;;5.25;3.25;;;18.30;99.90;;;;;;6247462;22;20004;-67
2023/09/03 02:56:29;;;;;;;5.85;3.25;;;18.30;99.90;;;;;;6247621;23;20000;-67
2023/09/03 02:58:55;;;;;;;6.03;3.28;;;18.20;99.90;;;;;;6220574;23;20376;-67
2023/09/03 03:01:20;;;;;;;5.68;3.60;;;18.30;99.90;;;;;;6247189;23;20009;-67
2023/09/03 03:03:47;;;;;;;6.72;3.67;;;18.30;99.90;;;;;;6247642;22;19997;-68
2023/09/03 03:06:14;;;;;;;5.38;3.20;;;18.30;99.90;;;;;;6247628;23;20007;-68
2023/09/03 03:08:39;;;;;;;4.95;3.75;;;18.30;99.90;;;;;;6221494;23;20007;-68
2023/09/03 03:11:05;;;;;;;5.53;3.33;;;18.20;99.90;;;;;;6220912;23;19996;-68
2023/09/03 03:13:30;;;;;;;5.70;3.58;;;18.20;99.90;;;;;;6247610;23;20042;-68
2023/09/03 03:15:56;;;;;;;7.47;3.40;;;18.20;99.90;;;;;;6247262;22;19996;-67
2023/09/03 03:18:22;;;;;;;6.70;3.20;;;18.20;99.90;;;;;;6247472;23;20005;-68
2023/09/03 03:20:47;;;;;;;5.03;3.17;;;18.20;99.90;;;;;;6220744;23;20000;-68
2023/09/03 03:23:13;;;;;;;5.05;3.05;;;18.20;99.90;;;;;;6247446;23;20151;-68
2023/09/03 03:25:38;;;;;;;4.00;3.20;;;18.20;99.90;;;;;;6247505;22;20000;-68
2023/09/03 03:28:04;;;;;;;6.90;3.45;;;18.10;99.90;;;;;;6247458;23;20004;-68
2023/09/03 03:30:30;;;;;;;4.85;2.80;;;18.10;99.90;;;;;;6247491;23;20074;-67
2023/09/03 03:32:55;;;;;;;6.60;3.40;;;18.10;99.90;;;;;;6220149;23;20000;-68
2023/09/03 03:35:21;;;;;;;5.95;3.20;;;18.10;99.90;;;;;;6247385;22;20227;-69
2023/09/03 03:37:46;;;;;;;5.25;3.28;;;18.10;99.90;;;;;;6248065;23;20450;-69
2023/09/03 03:40:12;;;;;;;5.95;3.25;;;18.10;99.90;;;;;;6247879;23;20030;-69
2023/09/03 03:42:38;;;;;;;6.70;3.47;;;18.00;99.90;;;;;;6247405;23;20438;-68
2023/09/03 03:45:04;;;;;;;3.92;3.20;;;18.00;99.90;;;;;;6247070;22;20012;-69
2023/09/03 03:47:29;;;;;;;9.27;3.20;;;18.10;99.90;;;;;;6247089;23;20005;-68
2023/09/03 03:49:55;;;;;;;4.88;3.38;;;18.00;99.90;;;;;;6246976;23;20482;-68
2023/09/03 03:52:21;;;;;;;5.38;3.53;;;18.10;99.90;;;;;;6247197;23;20008;-68
2023/09/03 03:54:47;;;;;;;4.75;2.92;;;18.10;99.90;;;;;;6247382;22;20000;-69
2023/09/03 03:57:13;;;;;;;4.78;3.38;;;18.00;99.90;;;;;;6247179;23;20008;-68
2023/09/03 03:59:39;;;;;;;5.47;3.70;;;18.00;99.90;;;;;;6247191;23;20014;-68
2023/09/03 04:02:04;;;;;;;6.43;3.40;;;18.10;99.90;;;;;;6247203;23;20713;-68
2023/09/03 04:04:30;;;;;;;6.38;4.20;;;18.10;99.90;;;;;;6247382;22;19996;-68
2023/09/03 04:06:55;;;;;;;4.35;3.83;;;18.10;99.90;;;;;;6247715;23;20319;-67
2023/09/03 04:09:21;;;;;;;5.50;3.42;;;18.00;99.90;;;;;;6248490;23;19996;-67
2023/09/03 04:11:48;;;;;;;6.70;3.70;;;17.90;99.90;;;;;;6221453;23;20011;-67
2023/09/03 04:14:14;;;;;;;4.82;3.85;;;18.00;99.90;;;;;;6247652;22;20000;-67
2023/09/03 04:16:39;;;;;;;8.02;3.83;;;17.90;99.90;;;;;;6220311;23;20055;-68
2023/09/03 04:19:05;;;;;;;4.88;3.38;;;17.90;99.90;;;;;;6221836;23;20195;-68
2023/09/03 04:21:30;;;;;;;6.55;4.18;;;17.80;99.90;;;;;;6220796;23;20004;-67
2023/09/03 04:23:56;;;;;;;6.28;3.80;;;17.80;99.90;;;;;;6224623;22;20027;-69
2023/09/03 04:26:21;;;;;;;6.10;3.35;;;17.90;99.90;;;;;;6248465;23;20417;-68
2023/09/03 04:28:47;;;;;;;5.85;3.40;;;17.90;99.90;;;;;;6248372;23;20004;-68
2023/09/03 04:31:12;;;;;;;6.22;3.30;;;17.90;99.90;;;;;;6246940;23;19996;-67
2023/09/03 04:33:38;;;;;;;6.75;3.90;;;18.00;99.90;;;;;;6247097;22;19996;-67
2023/09/03 04:36:04;;;;;;;5.95;3.50;;;18.00;99.90;;;;;;6220632;23;20000;-68
2023/09/03 04:38:30;;;;;;;;;;;18.00;99.90;;;;;;6249820;23;20000;-68
2023/09/03 04:40:56;;;;;;;6.30;3.92;;;18.00;99.90;;;;;;6248841;23;19981;-69
2023/09/03 04:43:22;;;;;;;;;;;18.00;99.90;;;;;;6249264;23;20015;-68
2023/09/03 04:45:52;;;;;;;7.45;3.50;;;18.00;99.90;;;;;;6249298;22;19915;-68
2023/09/03 04:48:19;;;;;;;7.78;3.70;;;18.00;99.90;;;;;;6247431;23;20012;-68
2023/09/03 04:50:45;;;;;;;4.90;3.47;;;18.00;99.90;;;;;;6246962;23;19996;-68
2023/09/03 04:53:12;;;;;;;8.05;4.18;;;18.00;99.90;;;;;;6247054;23;20007;-67
2023/09/03 04:55:38;;;;;;;8.63;4.10;;;18.00;99.90;;;;;;6246281;22;20015;-67
2023/09/03 04:58:04;;;;;;;4.13;3.20;;;18.10;99.90;;;;;;6247034;23;20327;-67
2023/09/03 05:00:30;;;;;;;5.05;3.53;;;18.00;99.90;;;;;;6246216;23;20014;-67
2023/09/03 05:02:56;;;;;;;5.47;3.42;;;18.00;99.90;;;;;;6246217;23;20359;-67
2023/09/03 05:05:22;;;;;;;;;;;18.00;99.90;;;;;;6246893;22;20023;-67
2023/09/03 05:07:47;;;;;;;5.15;3.40;;;18.00;99.90;;;;;;6246468;23;20306;-67
2023/09/03 05:10:13;;;;;;;7.32;3.55;;;18.00;99.90;;;;;;6247005;23;20003;-68
2023/09/03 05:12:40;;;;;;;9.65;3.50;;;18.00;99.90;;;;;;6246632;23;20011;-68
2023/09/03 05:15:08;;;;;;;8.02;3.60;;;18.00;99.90;;;;;;6246582;22;20057;-68
2023/09/03 05:17:33;;;;;;;5.40;3.60;;;18.10;99.90;;;;;;6246110;23;20042;-67
2023/09/03 05:19:59;;;;;;;4.57;3.58;;;18.00;99.90;;;;;;6219434;23;20004;-68
2023/09/03 05:22:24;;;;;;;5.55;3.60;;;18.00;99.90;;;;;;6246227;23;20027;-68
2023/09/03 05:24:50;;;;;;;6.05;3.60;;;18.00;99.90;;;;;;6219540;23;20000;-68
2023/09/03 05:27:15;;;;;;;5.90;3.70;;;18.10;99.90;;;;;;6246317;23;20000;-68
2023/09/03 05:29:41;;;;;;;6.18;3.90;;;18.00;99.90;;;;;;6246709;23;20074;-68
2023/09/03 05:32:07;;;;;;;5.60;3.85;;;18.10;99.90;;;;;;6246099;23;20009;-68
2023/09/03 05:34:33;;;;;;;4.95;3.55;;;18.10;99.90;;;;;;6246377;22;20324;-68
2023/09/03 05:36:58;;;;;;;7.15;3.70;;;18.00;99.90;;;;;;6246431;23;20049;-68
2023/09/03 05:39:25;;;;;;;7.45;3.83;;;18.00;99.90;;;;;;6246248;23;20000;-68
2023/09/03 05:41:50;;;;;;;5.85;4.10;;;18.00;99.90;;;;;;6246229;23;20431;-68
2023/09/03 05:44:16;;;;;;;6.57;4.30;;;18.00;99.90;;;;;;6245993;22;20011;-68
2023/09/03 05:46:43;;;;;;;9.67;4.20;;;18.10;99.90;;;;;;6246029;23;20011;-68
2023/09/03 05:49:08;;;;;;;7.68;4.55;;;18.10;99.90;;;;;;6246275;23;20542;-68
2023/09/03 05:51:34;;;;;;;5.10;3.90;;;18.20;99.90;;;;;;6246304;23;20313;-68
2023/09/03 05:54:00;;;;;;;8.50;4.65;;;18.20;99.90;;;;;;6246369;22;20001;-68
2023/09/03 05:56:25;;;;;;;6.93;4.60;;;18.30;99.90;;;;;;6246217;23;20311;-68
2023/09/03 05:58:51;;;;;;;8.40;4.55;;;18.40;99.90;;;;;;6246457;23;20031;-68
2023/09/03 06:01:17;;;;;;;8.57;4.32;;;18.50;99.90;;;;;;6246443;23;20000;-67
2023/09/03 06:03:42;;;;;;;6.28;3.85;;;18.50;99.90;;;;;;6246524;22;20000;-68
2023/09/03 06:06:09;;;;;;;8.27;4.20;;;18.60;99.90;;;;;;6246500;23;20316;-68
2023/09/03 06:08:36;;;;;;;5.63;3.95;;;18.70;99.90;;;;;;6252438;23;20031;-68
2023/09/03 06:11:03;;;;;;;7.75;4.10;;;18.80;99.90;;;;;;6257217;23;20016;-69
2023/09/03 06:13:33;;;;;;;7.38;3.85;;;18.90;99.90;;;;;;6231107;23;20004;-69
2023/09/03 06:15:59;;;;;;;7.20;3.78;;;19.00;99.90;;;;;;6255952;22;20000;-69
2023/09/03 06:18:25;;;;;;;5.05;3.22;;;19.00;99.90;;;;;;6218953;23;20027;-68
2023/09/03 06:20:51;;;;;;;3.88;3.30;;;19.10;99.90;;;;;;6246049;23;20003;-69
2023/09/03 06:23:18;;;;;;;;;;;19.20;99.90;;;;;;6247073;23;20004;-69
2023/09/03 06:25:49;;;;;;;8.32;3.45;;;19.30;99.90;;;;;;6245947;22;19934;-66
2023/09/03 06:28:15;;;;;;;4.88;3.38;;;19.30;99.90;;;;;;6245911;23;20001;-67
2023/09/03 06:30:41;;;;;;;8.65;4.30;;;19.30;99.90;;;;;;6247101;23;20415;-66
2023/09/03 06:33:07;;;;;;;;;;;19.40;99.90;;;;;;6245795;23;20455;-66
2023/09/03 06:35:32;;;;;;;5.97;3.78;;;19.40;99.90;;;;;;6218860;23;19978;-66
2023/09/03 06:37:59;;;;;;;8.70;3.90;;;19.40;99.90;;;;;;6245784;23;20008;-67
2023/09/03 06:40:25;;;;;;;8.60;4.35;;;19.50;99.90;;;;;;6244636;23;20372;-66
2023/09/03 06:42:51;;;;;;;8.02;3.85;;;19.60;99.90;;;;;;6244850;23;20042;-66
2023/09/03 06:45:17;;;;;;;;;;;19.50;99.90;;;;;;6246197;22;20454;-67
2023/09/03 06:47:46;;;;;;;10.80;3.92;;;19.60;99.90;;;;;;6245951;23;19982;-67
2023/09/03 06:50:12;;;;;;;5.45;4.70;;;19.70;99.90;;;;;;6247082;23;20445;-66
2023/09/03 06:52:38;;;;;;;6.82;4.18;;;19.70;99.90;;;;;;6245136;23;20018;-67
2023/09/03 06:55:04;;;;;;;10.73;4.72;;;19.70;99.90;;;;;;6244776;22;20004;-67
2023/09/03 06:57:30;;;;;;;6.45;5.18;;;19.70;99.90;;;;;;6245760;23;20335;-67
2023/09/03 06:59:56;;;;;;;8.38;4.97;;;19.70;99.90;;;;;;6246026;23;20000;-67
2023/09/03 07:02:22;;;;;;;9.48;5.38;;;19.60;99.90;;;;;;6245500;23;20004;-67
2023/09/03 07:04:48;;;;;;;8.75;5.15;;;19.60;99.90;;;;;;6218674;23;20011;-67
2023/09/03 07:07:14;;;;;;;9.27;5.10;;;19.60;99.90;;;;;;6246296;23;20379;-67
2023/09/03 07:09:39;;;;;;;8.75;5.18;;;19.70;99.90;;;;;;6245210;23;20326;-68
2023/09/03 07:12:05;;;;;;;8.73;4.75;;;19.80;99.90;;;;;;6245398;23;20004;-66
2023/09/03 07:14:35;;;;;;;5.45;4.80;;;19.80;99.90;;;;;;6246314;22;20426;-65
2023/09/03 07:17:02;;;;;;;6.65;4.70;;;20.00;99.90;;;;;;6245264;23;20012;-65
2023/09/03 07:19:28;;;;;;;5.47;4.78;;;20.10;99.90;;;;;;6246173;23;20004;-66
2023/09/03 07:21:53;;;;;;;;;;;20.20;99.90;;;;;;6246199;23;20442;-66
2023/09/03 07:24:19;;;;;;;6.95;4.90;;;20.20;99.90;;;;;;6246746;22;19900;-66
2023/09/03 07:26:45;;;;;;;9.80;5.38;;;20.20;99.90;;;;;;6248185;23;19996;-66
2023/09/03 07:29:12;;;;;;;7.75;4.88;;;20.30;99.90;;;;;;6247704;23;20055;-66
2023/09/03 07:31:40;;;;;;;6.20;5.18;;;20.30;99.90;;;;;;6247866;23;20326;-66
2023/09/03 07:34:07;;;;;;;8.05;5.20;;;20.50;99.90;;;;;;6247169;22;20079;-67
2023/09/03 07:36:33;;;;;;;5.15;3.67;;;20.60;99.90;;;;;;6247239;23;20023;-67
2023/09/03 07:38:58;;;;;;;7.03;4.53;;;20.60;99.90;;;;;;6247412;23;20004;-67
2023/09/03 07:41:24;;;;;;;7.32;4.88;;;20.80;99.90;;;;;;6247265;23;20376;-67
2023/09/03 07:43:51;;;;;;;7.50;5.20;;;20.90;99.90;;;;;;6247357;22;20004;-67
2023/09/03 07:46:17;;;;;;;8.00;6.03;;;20.90;99.90;;;;;;6267866;22;20015;-63
2023/09/03 07:48:43;;;;;;;7.97;5.30;;;20.90;99.90;;;;;;6278418;22;20000;-62
2023/09/03 07:51:08;;;;;;;6.63;4.53;;;20.90;99.90;;;;;;6277926;22;20418;-62
2023/09/03 07:53:34;;;;;;;9.88;6.10;;;21.00;99.90;;;;;;6278308;22;19996;-62
2023/09/03 07:56:00;;;;;;;8.35;5.80;;;21.00;99.90;;;;;;6258506;22;20054;-62
2023/09/03 07:58:25;;;;;;;7.00;5.35;;;21.10;99.90;;;;;;6247134;23;20007;-62
2023/09/03 08:00:52;;;;;;;7.82;5.82;;;21.10;99.90;;;;;;6220517;23;20007;-62
2023/09/03 08:03:17;;;;;;;5.45;4.88;;;21.10;99.90;;;;;;6247757;23;20354;-64
2023/09/03 08:05:43;;;;;;;8.93;4.78;;;21.20;99.90;;;;;;6247441;22;20004;-63
2023/09/03 08:08:08;;;;;;;7.70;4.82;;;21.30;99.90;;;;;;6247494;23;20004;-62
2023/09/03 08:10:34;;;;;;;7.25;4.55;;;21.50;99.90;;;;;;6247241;23;20308;-62
2023/09/03 08:13:00;;;;;;;9.18;4.93;;;21.60;99.90;;;;;;6246976;23;20037;-63
2023/09/03 08:15:25;;;;;;;6.53;4.15;;;21.80;99.90;;;;;;6247034;22;20004;-61
2023/09/03 08:17:51;;;;;;;6.00;4.28;;;21.90;99.90;;;;;;6220346;23;20000;-63
2023/09/03 08:20:16;;;;;;;5.00;3.60;;;22.10;99.90;;;;;;6247450;23;20011;-61
2023/09/03 08:22:42;;;;;;;5.80;3.55;;;22.40;99.90;;;;;;6247264;23;20067;-64
2023/09/03 08:25:08;;;;;;;6.68;3.30;;;22.60;99.90;;;;;;6220313;23;20010;-64
2023/09/03 08:27:33;;;;;;;;;;;22.80;99.90;;;;;;6220642;23;19997;-67
2023/09/03 08:29:59;;;;;;;7.18;3.10;;;23.00;99.90;;;;;;6247081;23;19986;-68
2023/09/03 08:32:24;;;;;;;;;;;23.30;99.90;;;;;;6247997;23;20442;-65
2023/09/03 08:34:51;;;;;;;4.75;3.05;;;23.50;99.90;;;;;;6248277;22;19900;-64
2023/09/03 08:37:17;;;;;;;5.78;3.00;;;23.60;99.90;;;;;;6248684;23;20027;-64
2023/09/03 08:39:42;;;;;;;;;;;23.70;99.90;;;;;;6248379;23;20004;-63
2023/09/03 08:42:12;;;;;;;5.72;2.88;;;23.90;99.90;;;;;;6246711;23;20234;-64
2023/09/03 08:44:45;;;;;;;6.03;2.95;;;24.10;99.90;;;;;;6247030;22;20354;-66
2023/09/03 08:47:15;;;;;;;8.23;3.20;;;24.50;99.90;;;;;;6189547;23;20036;-64
2023/09/03 08:49:42;;;;;;;4.75;3.15;;;24.50;99.90;;;;;;6216271;23;20001;-64
2023/09/03 08:52:09;;;;;;;5.82;2.92;;;24.40;99.90;;;;;;6216241;23;20576;-65
2023/09/03 08:54:35;;;;;;;4.28;2.92;;;24.40;99.90;;;;;;6216546;23;20000;-64
2023/09/03 08:57:01;;;;;;;4.43;2.65;;;24.30;99.90;;;;;;6216415;23;20005;-63
2023/09/03 08:59:27;;;;;;;7.63;2.90;;;24.60;99.90;;;;;;6216683;23;20004;-65
2023/09/03 09:01:53;;;;;;;;;;;25.50;99.90;;;;;;6216322;23;20050;-63
2023/09/03 09:04:18;;;;;;;8.40;2.70;;;26.40;99.90;;;;;;6216276;23;19980;-64
2023/09/03 09:06:46;;;;;;;6.22;3.05;;;26.90;99.90;;;;;;6216077;23;20107;-63
2023/09/03 09:09:13;;;;;;;5.13;3.22;;;27.30;99.90;;;;;;6189552;23;20012;-63
2023/09/03 09:11:44;;;;;;;2.95;2.40;;;27.80;99.90;;;;;;6216012;23;20008;-64
2023/09/03 09:14:31;;;;;;;5.15;2.35;;;28.30;99.90;;;;;;6189506;23;20001;-64
2023/09/03 09:16:56;;;;;;;3.05;2.40;;;29.10;99.90;;;;;;6189141;23;20032;-64
2023/09/03 09:19:22;;;;;;;7.13;2.30;;;28.80;99.90;;;;;;6216036;23;20001;-63
2023/09/03 09:21:48;;;;;;;5.22;3.10;;;29.00;99.90;;;;;;6189262;23;20023;-64
2023/09/03 09:24:13;;;;;;;4.13;2.80;;;29.60;99.90;;;;;;6216062;23;20001;-67
2023/09/03 09:26:39;;;;;;;3.00;2.30;;;30.20;99.90;;;;;;6215913;23;20419;-60
2023/09/03 09:29:05;;;;;;;4.57;2.45;;;30.40;99.30;;;;;;6215854;23;19996;-61
2023/09/03 09:31:32;;;;;;;4.25;2.70;;;30.60;99.20;;;;;;6215612;23;20326;-61
2023/09/03 09:33:59;;;;;;;5.40;2.80;;;30.50;98.70;;;;;;6215904;23;20026;-61
2023/09/03 09:36:26;;;;;;;3.75;2.50;;;29.90;99.00;;;;;;6189049;23;20083;-61
2023/09/03 09:38:51;;;;;;;4.63;2.60;;;29.70;99.70;;;;;;6215912;23;20012;-62
2023/09/03 09:41:25;;;;;;;3.45;2.40;;;30.00;99.30;;;;;;6216350;23;20005;-62
2023/09/03 09:43:51;;;;;;;3.38;2.63;;;30.50;98.80;;;;;;6189260;23;20012;-61
2023/09/03 09:46:27;;;;;;;4.40;2.45;;;31.30;97.90;;;;;;6235628;23;20369;-60
2023/09/03 09:48:57;;;;;;;5.18;2.63;;;31.80;97.10;;;;;;6246546;23;19996;-61
2023/09/03 09:51:24;;;;;;;4.18;2.30;;;32.30;96.40;;;;;;6219221;23;20062;-62
2023/09/03 09:54:04;;;;;;;6.43;2.40;;;32.70;95.90;;;;;;6246138;23;20004;-61
2023/09/03 09:56:36;;;;;;;5.22;2.00;;;32.70;95.20;;;;;;6219367;23;20028;-61
2023/09/03 09:59:02;;;;;;;4.07;2.17;;;33.10;94.90;;;;;;6246307;23;20004;-60
2023/09/03 10:01:46;;;;;;;4.45;2.50;;;33.90;94.20;;;;;;6245844;23;20495;-61
2023/09/03 10:04:12;;;;;;;3.42;2.00;;;34.60;93.00;;;;;;6246003;23;20067;-61
2023/09/03 10:06:39;;;;;;;3.92;2.38;;;34.70;92.60;;;;;;6246608;22;20000;-61
2023/09/03 10:09:07;;;;;;;2.80;1.67;;;34.80;92.30;;;;;;6219069;23;20435;-60
2023/09/03 10:11:33;;;;;;;7.30;5.28;;;35.30;91.60;;;;;;6246009;23;20436;-61
2023/09/03 10:13:58;;;;;;;3.38;1.95;;;35.90;90.60;;;;;;6246750;23;20081;-61
2023/09/03 10:16:24;;;;;;;3.45;1.65;;;36.20;90.20;;;;;;6245642;22;20000;-61
2023/09/03 10:18:50;;;;;;;3.05;1.73;;;36.60;89.00;;;;;;6245911;23;20011;-62
2023/09/03 10:21:24;;;;;;;3.58;1.90;;;36.00;88.40;;;;;;6246099;23;20419;-62
2023/09/03 10:23:50;;;;;;;3.63;2.15;;;36.10;88.60;;;;;;6246354;23;20312;-62
2023/09/03 10:26:21;;;;;;;3.58;2.08;;;36.50;87.70;;;;;;6245947;22;20011;-63
2023/09/03 10:28:51;;;;;;;5.13;1.90;;;36.80;86.70;;;;;;6219035;23;20493;-64
2023/09/03 10:31:17;;;;;;;2.20;1.67;;;36.80;86.20;;;;;;6246016;23;20000;-61
2023/09/03 10:33:43;;;;;;;4.30;1.70;;;37.50;83.90;;;;;;6246915;23;20031;-64
2023/09/03 10:36:13;;;;;;;2.03;1.70;;;37.20;82.90;;;;;;6220088;23;20046;-63
2023/09/03 10:38:40;;;;;;;2.00;1.45;;;36.80;83.30;;;;;;6246125;23;20008;-66
2023/09/03 10:41:22;;;;;;;3.42;1.60;;;36.70;84.30;;;;;;6246721;23;20079;-66
2023/09/03 10:43:53;;;;;;;3.50;1.60;;;36.70;82.70;;;;;;6219243;23;20000;-63
2023/09/03 10:46:22;;;;;;;5.00;1.73;;;36.50;82.80;;;;;;6245435;22;20099;-63
2023/09/03 10:48:55;;;;;;;1.83;1.30;;;35.90;83.60;;;;;;6245877;23;20000;-67
2023/09/03 10:51:35;;;;;;;3.15;1.70;;;36.10;83.80;;;;;;6245948;23;20004;-67
2023/09/03 10:54:19;;;;;;;3.33;1.60;;;36.20;83.70;;;;;;6219078;23;20062;-69
2023/09/03 10:57:03;;;;;;;1.70;1.60;;;36.50;83.10;;;;;;6245860;22;20427;-69
2023/09/03 10:59:57;;;;;;;3.63;1.77;;;36.20;83.00;;;;;;6220072;23;20004;-68
2023/09/03 11:02:27;;;;;;;2.83;1.70;;;36.00;83.50;;;;;;6247175;23;20004;-67
2023/09/03 11:05:11;;;;;;;1.58;1.25;;;36.20;83.50;;;;;;6220815;22;20427;-67
2023/09/03 11:07:37;;;;;;;2.70;1.40;;;36.40;81.70;;;;;;6247776;23;20450;-66
2023/09/03 11:10:24;;;;;;;2.78;1.10;;;35.50;81.70;;;;;;6248439;23;20454;-65
2023/09/03 11:12:51;;;;;;;1.55;1.30;;;33.50;84.40;;;;;;6220854;23;20000;-65
2023/09/03 11:15:18;;;;;;;1.95;1.20;;;32.20;88.00;;;;;;6247255;22;20423;-66
2023/09/03 11:17:56;;;;;;;2.50;1.35;;;31.30;88.00;;;;;;6248343;23;20008;-65
2023/09/03 11:20:33;;;;;;;2.08;1.25;;;30.60;88.90;;;;;;6248582;23;20430;-67
2023/09/03 11:22:59;;;;;;;1.98;0.95;;;30.10;90.60;;;;;;6248481;23;20038;-66
2023/09/03 11:25:32;;;;;;;1.75;1.05;;;29.60;90.90;;;;;;6248066;22;20011;-65
2023/09/03 11:27:58;;;;;;;2.13;1.10;;;29.30;91.30;;;;;;6247473;23;20007;-66
2023/09/03 11:30:24;;;;;;;2.03;0.95;;;29.10;91.90;;;;;;6247737;23;20327;-66
2023/09/03 11:32:49;;;;;;;1.90;1.17;;;29.00;92.40;;;;;;6247984;23;20000;-66
2023/09/03 11:35:15;;;;;;;2.10;1.15;;;28.90;92.40;;;;;;6248112;22;20000;-67
2023/09/03 11:37:40;;;;;;;1.58;1.20;;;28.80;92.80;;;;;;6247839;23;20008;-67
2023/09/03 11:40:07;;;;;;;2.00;1.23;;;28.60;93.50;;;;;;6247915;23;20003;-66
2023/09/03 11:42:32;;;;;;;3.50;1.40;;;28.50;93.40;;;;;;6247967;23;20000;-66
2023/09/03 11:44:58;;;;;;;1.65;1.25;;;28.20;93.50;;;;;;6247797;22;20035;-67
2023/09/03 11:47:24;;;;;;;3.05;1.75;;;28.10;94.30;;;;;;6247131;23;20032;-66
2023/09/03 11:49:49;;;;;;;2.22;1.77;;;28.00;95.10;;;;;;6247269;23;20001;-66
2023/09/03 11:52:15;;;;;;;2.85;1.88;;;28.00;95.50;;;;;;6247914;23;20001;-66
2023/09/03 11:54:42;;;;;;;2.15;1.45;;;28.10;95.50;;;;;;6247016;22;20318;-65
2023/09/03 11:57:11;;;;;;;3.03;2.05;;;28.20;95.40;;;;;;6220272;23;20051;-66
2023/09/03 11:59:36;;;;;;;2.92;1.95;;;28.20;95.70;;;;;;6246952;23;20011;-67
2023/09/03 12:02:03;;;;;;;3.58;2.15;;;28.00;95.80;;;;;;6246867;23;20004;-65
2023/09/03 12:04:30;;;;;;;5.60;2.13;;;28.00;96.00;;;;;;6220220;23;20036;-66
2023/09/03 12:06:56;;;;;;;3.70;2.00;;;27.80;96.30;;;;;;6247069;23;20011;-66
2023/09/03 12:09:23;;;;;;;4.05;1.63;;;27.70;96.70;;;;;;6246868;23;20024;-67
2023/09/03 12:11:49;;;;;;;2.45;1.90;;;27.70;96.50;;;;;;6247241;23;20004;-66
2023/09/03 12:14:30;;;;;;;4.25;1.85;;;27.70;96.50;;;;;;6247026;23;20004;-66
2023/09/03 12:16:55;;;;;;;3.65;2.00;;;27.60;96.80;;;;;;6247098;23;20004;-65
2023/09/03 12:19:21;;;;;;;2.78;1.30;;;27.70;96.70;;;;;;6247026;23;20510;-65
2023/09/03 12:21:50;;;;;;;1.65;1.42;;;27.70;96.20;;;;;;6246812;23;20004;-66
2023/09/03 12:24:16;;;;;;;3.42;1.95;;;27.50;96.50;;;;;;6247134;23;19997;-66
2023/09/03 12:26:42;;;;;;;3.38;2.00;;;27.30;97.10;;;;;;6220050;23;20008;-65
2023/09/03 12:29:21;;;;;;;2.25;1.50;;;27.30;97.30;;;;;;6246950;23;19996;-66
2023/09/03 12:31:47;;;;;;;1.80;1.50;;;27.40;96.80;;;;;;6219687;23;20138;-66
2023/09/03 12:34:15;;;;;;;3.30;2.20;;;27.40;96.90;;;;;;6247469;23;20000;-67
2023/09/03 12:36:57;;;;;;;2.53;1.88;;;27.60;97.00;;;;;;6246819;22;20039;-67
2023/09/03 12:39:37;;;;;;;8.77;2.03;;;27.60;97.00;;;;;;6246853;23;20001;-66
2023/09/03 12:42:06;;;;;;;61.08;16.15;;;27.50;97.00;;;;;;6246682;23;20078;-66
2023/09/03 12:44:33;;;;;;;3.50;1.73;;;27.40;97.40;;;;;;6246515;22;19996;-65
2023/09/03 12:46:59;;;;;;;1.92;1.30;;;27.40;97.10;;;;;;6246305;23;20439;-66
2023/09/03 12:49:26;;;;;;;4.25;1.42;;;27.30;96.60;;;;;;6246758;23;20053;-67
2023/09/03 12:51:52;;;;;;;5.90;2.47;;;27.20;97.10;;;;;;6246668;23;20439;-65